createdAt,value
2023-04-07T00:03:16.521Z,30.80
2023-04-07T00:08:19.737Z,28.90
2023-04-07T00:13:22.875Z,27.33
2023-04-07T00:18:27.456Z,24.52
2023-04-07T00:23:30.532Z,23.25
2023-04-07T00:28:33.656Z,22.63
2023-04-07T00:33:38.180Z,21.48
2023-04-07T00:38:41.652Z,23.08
2023-04-07T00:43:46.061Z,22.17
2023-04-07T00:48:50.647Z,22.00
2023-04-07T00:53:54.101Z,20.70
2023-04-07T00:58:57.982Z,19.02
2023-04-07T01:04:05.536Z,18.05
2023-04-07T01:09:12.363Z,16.08
2023-04-07T01:14:17.017Z,15.18
2023-04-07T01:19:33.295Z,16.25
2023-04-07T01:24:43.649Z,14.25
2023-04-07T01:29:50.542Z,10.73
2023-04-07T01:34:54.169Z,13.43
2023-04-07T01:39:57.446Z,13.65
2023-04-07T01:45:02.322Z,13.90
2023-04-07T01:50:06.126Z,14.15
2023-04-07T01:55:09.839Z,12.70
2023-04-07T02:00:20.053Z,13.63
2023-04-07T02:05:29.080Z,14.02
2023-04-07T02:10:34.115Z,13.18
2023-04-07T02:15:39.150Z,14.27
2023-04-07T02:20:43.732Z,14.63
2023-04-07T02:25:48.036Z,14.65
2023-04-07T02:30:52.535Z,16.48
2023-04-07T02:35:55.931Z,14.35
2023-04-07T02:40:59.502Z,15.20
2023-04-07T02:46:07.469Z,14.23
2023-04-07T02:51:10.898Z,14.32
2023-04-07T02:56:13.993Z,14.23
2023-04-07T03:01:18.494Z,15.73
2023-04-07T03:06:21.651Z,15.77
2023-04-07T03:11:36.705Z,15.88
2023-04-07T03:16:41.578Z,16.40
2023-04-07T03:21:47.890Z,17.88
2023-04-07T03:26:51.362Z,17.33
2023-04-07T03:32:02.024Z,18.00
2023-04-07T03:37:05.265Z,17.77
2023-04-07T03:42:11.274Z,18.65
2023-04-07T03:47:16.060Z,19.33
2023-04-07T03:52:22.994Z,19.13
2023-04-07T03:57:30.218Z,16.67
2023-04-07T04:02:34.869Z,17.50
2023-04-07T04:07:39.032Z,16.90
2023-04-07T04:12:42.742Z,18.90
2023-04-07T04:17:50.526Z,19.45
2023-04-07T04:22:54.542Z,18.23
2023-04-07T04:27:58.139Z,18.02
2023-04-07T04:33:04.918Z,18.33
2023-04-07T04:38:17.876Z,16.15
2023-04-07T04:43:28.038Z,13.20
2023-04-07T04:48:33.479Z,19.70
2023-04-07T04:53:36.860Z,19.38
2023-04-07T04:58:46.051Z,17.23
2023-04-07T05:03:56.690Z,17.02
2023-04-07T05:09:04.654Z,17.67
2023-04-07T05:14:16.506Z,16.40
2023-04-07T05:19:29.650Z,15.65
2023-04-07T05:24:38.498Z,16.73
2023-04-07T05:29:41.666Z,16.55
2023-04-07T05:34:53.002Z,17.23
2023-04-07T05:39:59.250Z,16.55
2023-04-07T05:45:02.497Z,15.50
2023-04-07T05:50:08.071Z,15.80
2023-04-07T05:55:12.313Z,17.10
2023-04-07T06:00:16.095Z,17.60
2023-04-07T06:05:24.044Z,16.38
2023-04-07T06:10:30.410Z,15.48
2023-04-07T06:15:33.826Z,17.50
2023-04-07T06:20:38.421Z,17.15
2023-04-07T06:25:41.579Z,17.20
2023-04-07T06:30:44.847Z,17.75
2023-04-07T06:35:51.186Z,17.17
2023-04-07T06:40:54.348Z,17.80
2023-04-07T06:45:57.548Z,16.77
2023-04-07T06:51:02.080Z,16.13
2023-04-07T06:56:06.154Z,16.65
2023-04-07T07:01:09.497Z,16.05
2023-04-07T07:06:14.094Z,15.32
2023-04-07T07:11:17.291Z,13.23
2023-04-07T07:16:20.450Z,10.43
2023-04-07T07:21:25.004Z,9.55
2023-04-07T07:26:28.156Z,8.75
2023-04-07T07:31:31.625Z,9.27
2023-04-07T07:36:36.266Z,9.05
2023-04-07T07:41:39.331Z,8.77
2023-04-07T07:46:42.465Z,7.20
2023-04-07T07:51:47.244Z,8.10
2023-04-07T07:56:50.402Z,7.80
2023-04-07T08:01:53.520Z,6.97
2023-04-07T08:06:58.275Z,7.80
2023-04-07T08:12:01.549Z,6.95
2023-04-07T08:17:04.655Z,6.68
2023-04-07T08:22:09.113Z,7.70
2023-04-07T08:27:12.234Z,7.53
2023-04-07T08:32:15.371Z,7.10
2023-04-07T08:37:19.798Z,8.77
2023-04-07T08:42:23.615Z,7.18
2023-04-07T08:47:27.362Z,7.38
2023-04-07T08:52:34.719Z,7.15
2023-04-07T08:57:37.869Z,7.45
2023-04-07T09:02:41.685Z,10.02
2023-04-07T09:07:46.221Z,11.25
2023-04-07T09:12:49.417Z,10.18
2023-04-07T09:17:52.616Z,11.40
2023-04-07T09:22:57.082Z,10.15
2023-04-07T09:28:01.138Z,9.93
2023-04-07T09:33:04.292Z,9.63
2023-04-07T09:38:09.281Z,9.27
2023-04-07T09:43:16.593Z,9.05
2023-04-07T09:48:20.364Z,7.15
2023-04-07T09:53:42.044Z,7.00
2023-04-07T09:58:46.494Z,7.25
2023-04-07T10:03:51.389Z,7.35
2023-04-07T10:08:56.163Z,8.32
2023-04-07T10:13:59.355Z,6.65
2023-04-07T10:19:02.828Z,6.47
2023-04-07T10:24:15.851Z,7.07
2023-04-07T10:29:19.677Z,7.28
2023-04-07T10:34:37.586Z,6.80
2023-04-07T10:39:42.039Z,6.00
2023-04-07T10:45:04.403Z,6.85
2023-04-07T10:50:19.120Z,5.97
2023-04-07T10:55:36.817Z,5.85
2023-04-07T11:00:39.903Z,4.97
2023-04-07T11:05:43.259Z,4.88
2023-04-07T11:10:49.967Z,5.18
2023-04-07T11:15:53.087Z,6.68
2023-04-07T11:20:58.400Z,9.30
2023-04-07T11:26:03.430Z,6.57
2023-04-07T11:31:06.776Z,7.00
2023-04-07T11:36:09.956Z,6.35
2023-04-07T11:41:15.466Z,8.00
2023-04-07T11:46:19.555Z,6.45
2023-04-07T11:51:23.977Z,6.90
2023-04-07T11:56:30.518Z,7.43
2023-04-07T12:01:40.440Z,6.82
2023-04-07T12:06:43.898Z,6.55
2023-04-07T12:11:51.568Z,6.85
2023-04-07T12:16:56.505Z,6.30
2023-04-07T12:21:59.868Z,6.95
2023-04-07T12:27:04.476Z,6.95
2023-04-07T12:32:07.889Z,7.55
2023-04-07T12:37:11.277Z,7.13
2023-04-07T12:42:15.751Z,8.63
2023-04-07T12:47:18.899Z,7.82
2023-04-07T12:52:22.602Z,8.18
2023-04-07T12:57:27.529Z,7.88
2023-04-07T13:02:31.112Z,7.88
2023-04-07T13:07:35.101Z,7.63
2023-04-07T13:12:41.221Z,7.38
2023-04-07T13:17:44.404Z,26.58
2023-04-07T13:22:50.779Z,6.88
2023-04-07T13:28:05.909Z,6.93
2023-04-07T13:33:09.176Z,8.00
2023-04-07T13:38:12.244Z,9.05
2023-04-07T13:43:18.635Z,8.30
2023-04-07T13:48:21.758Z,7.82
2023-04-07T13:53:24.911Z,7.10
2023-04-07T13:58:31.014Z,6.95
2023-04-07T14:03:35.355Z,8.25
2023-04-07T14:08:38.858Z,7.07
2023-04-07T14:13:43.473Z,6.40
2023-04-07T14:18:46.874Z,6.90
2023-04-07T14:23:49.981Z,6.45
2023-04-07T14:28:54.681Z,6.75
2023-04-07T14:33:57.826Z,6.72
2023-04-07T14:39:01.238Z,6.45
2023-04-07T14:44:06.292Z,5.88
2023-04-07T14:49:09.401Z,6.38
2023-04-07T14:54:12.527Z,6.65
2023-04-07T14:59:16.974Z,5.60
2023-04-07T15:04:20.210Z,5.95
2023-04-07T15:09:23.384Z,6.97
2023-04-07T15:14:27.987Z,5.45
2023-04-07T15:19:31.076Z,5.13
2023-04-07T15:24:34.207Z,5.10
2023-04-07T15:29:38.832Z,5.53
2023-04-07T15:34:41.994Z,6.00
2023-04-07T15:39:45.149Z,5.60
2023-04-07T15:44:49.668Z,5.53
2023-04-07T15:49:52.764Z,5.43
2023-04-07T15:54:56.158Z,5.30
2023-04-07T16:00:00.685Z,6.40
2023-04-07T16:05:03.845Z,5.70
2023-04-07T16:10:08.477Z,5.80
2023-04-07T16:15:13.562Z,6.15
2023-04-07T16:20:16.814Z,6.55
2023-04-07T16:25:19.898Z,6.22
2023-04-07T16:30:25.277Z,6.85
2023-04-07T16:35:29.264Z,8.68
2023-04-07T16:40:32.559Z,8.20
2023-04-07T16:45:37.158Z,9.32
2023-04-07T16:50:42.500Z,10.38
2023-04-07T16:55:46.034Z,11.32
2023-04-07T17:00:51.150Z,10.63
2023-04-07T17:05:54.273Z,9.48
2023-04-07T17:10:57.390Z,7.97
2023-04-07T17:16:02.038Z,12.02
2023-04-07T17:21:05.173Z,6.45
2023-04-07T17:26:08.612Z,6.88
2023-04-07T17:31:14.736Z,7.43
2023-04-07T17:36:17.995Z,6.85
2023-04-07T17:41:21.265Z,7.55
2023-04-07T17:46:25.839Z,6.93
2023-04-07T17:51:28.981Z,12.18
2023-04-07T17:56:32.867Z,9.05
2023-04-07T18:01:37.435Z,7.47
2023-04-07T18:06:40.591Z,8.93
2023-04-07T18:11:43.775Z,9.85
2023-04-07T18:16:48.273Z,10.75
2023-04-07T18:21:53.159Z,11.60
2023-04-07T18:26:57.050Z,12.18
2023-04-07T18:32:01.592Z,13.27
2023-04-07T18:37:04.658Z,14.73
2023-04-07T18:42:07.835Z,14.68
2023-04-07T18:47:12.372Z,13.80
2023-04-07T18:52:15.453Z,13.48
2023-04-07T18:57:18.489Z,15.15
2023-04-07T19:02:23.071Z,14.15
2023-04-07T19:07:26.577Z,14.85
2023-04-07T19:12:29.687Z,16.42
2023-04-07T19:17:34.313Z,16.48
2023-04-07T19:22:37.616Z,16.33
2023-04-07T19:27:41.007Z,15.82
2023-04-07T19:32:45.636Z,14.85
2023-04-07T19:37:48.726Z,15.50
2023-04-07T19:42:51.860Z,15.85
2023-04-07T19:47:56.974Z,15.05
2023-04-07T19:53:00.093Z,14.80
2023-04-07T19:58:03.127Z,14.50
2023-04-07T20:03:07.880Z,15.30
2023-04-07T20:08:11.641Z,14.52
2023-04-07T20:13:14.738Z,15.13
2023-04-07T20:18:21.048Z,15.85
2023-04-07T20:23:24.124Z,16.00
2023-04-07T20:28:27.227Z,14.75
2023-04-07T20:33:31.742Z,15.55
2023-04-07T20:38:35.285Z,14.23
2023-04-07T20:43:38.443Z,15.68
2023-04-07T20:48:43.270Z,15.80
2023-04-07T20:53:46.540Z,15.43
2023-04-07T20:58:49.920Z,15.40
2023-04-07T21:03:54.886Z,13.52
2023-04-07T21:08:58.136Z,15.60
2023-04-07T21:14:01.661Z,16.98
2023-04-07T21:19:06.459Z,13.95
2023-04-07T21:24:09.853Z,22.23
2023-04-07T21:29:13.016Z,17.92
2023-04-07T21:34:17.649Z,13.80
2023-04-07T21:39:20.811Z,14.75
2023-04-07T21:44:23.881Z,21.50
2023-04-07T21:49:28.345Z,15.15
2023-04-07T21:54:31.465Z,15.40
2023-04-07T21:59:35.459Z,15.63
2023-04-07T22:04:40.062Z,17.60
2023-04-07T22:09:43.146Z,17.33
2023-04-07T22:14:46.222Z,18.25
2023-04-07T22:19:50.703Z,16.60
2023-04-07T22:24:53.921Z,16.75
2023-04-07T22:29:57.099Z,16.65
2023-04-07T22:35:01.546Z,17.60
2023-04-07T22:40:04.846Z,16.02
2023-04-07T22:45:08.617Z,14.05
2023-04-07T22:50:13.333Z,13.25
2023-04-07T22:55:16.473Z,13.52
2023-04-07T23:00:19.627Z,15.20
2023-04-07T23:05:24.185Z,14.48
2023-04-07T23:10:27.401Z,12.27
2023-04-07T23:15:30.504Z,14.15
2023-04-07T23:20:34.953Z,12.55
2023-04-07T23:25:38.113Z,11.45
2023-04-07T23:30:41.267Z,11.82
2023-04-07T23:35:45.791Z,9.75
2023-04-07T23:40:48.928Z,9.60
2023-04-07T23:45:52.010Z,9.95
2023-04-07T23:50:56.650Z,10.82
2023-04-07T23:55:59.698Z,10.20
